createdAt,value
2016-05-02T00:00:27.805Z,7.12
2016-05-02T00:01:28.074Z,7.2
2016-05-02T00:02:28.061Z,7.13
2016-05-02T00:03:28.017Z,7.12
2016-05-02T00:04:27.848Z,7.16
2016-05-02T00:05:27.976Z,7.04
2016-05-02T00:06:28.057Z,7.05
2016-05-02T00:07:27.934Z,7.04
2016-05-02T00:08:27.905Z,7.02
2016-05-02T00:09:27.877Z,7.02
2016-05-02T00:10:27.848Z,6.99
2016-05-02T00:11:27.835Z,7.04
2016-05-02T00:12:27.651Z,7.02
2016-05-02T00:13:27.762Z,7.02
2016-05-02T00:14:27.749Z,6.91
2016-05-02T00:15:27.721Z,6.99
2016-05-02T00:16:27.693Z,6.83
2016-05-02T00:17:27.523Z,6.86
2016-05-02T00:18:27.479Z,6.94
2016-05-02T00:19:27.622Z,6.86
2016-05-02T00:20:27.594Z,6.87
2016-05-02T00:21:27.408Z,6.87
2016-05-02T00:22:27.365Z,6.89
2016-05-02T00:23:27.508Z,6.86
2016-05-02T00:24:27.495Z,6.87
2016-05-02T00:25:27.451Z,6.89
2016-05-02T00:26:27.422Z,6.84
2016-05-02T00:27:27.393Z,6.76
2016-05-02T00:28:27.365Z,6.8
2016-05-02T00:29:27.369Z,6.76
2016-05-02T00:30:27.324Z,6.76
2016-05-02T00:31:27.296Z,6.79
2016-05-02T00:32:27.266Z,6.73
2016-05-02T00:33:27.238Z,6.79
2016-05-02T00:34:27.053Z,6.76
2016-05-02T00:35:27.196Z,6.76
2016-05-02T00:36:27.262Z,6.79
2016-05-02T00:37:27.124Z,6.66
2016-05-02T00:38:27.110Z,6.65
2016-05-02T00:39:27.067Z,6.71
2016-05-02T00:40:27.053Z,6.73
2016-05-02T00:41:27.026Z,6.69
2016-05-02T00:42:26.996Z,6.69
2016-05-02T00:43:26.968Z,6.65
2016-05-02T00:44:26.939Z,6.65
2016-05-02T00:45:26.770Z,6.65
2016-05-02T00:46:26.742Z,6.59
2016-05-02T00:47:26.713Z,6.62
2016-05-02T00:48:26.841Z,6.56
2016-05-02T00:49:26.812Z,6.59
2016-05-02T00:50:26.784Z,6.62
2016-05-02T00:51:27.099Z,6.56
2016-05-02T00:52:26.727Z,6.56
2016-05-02T00:53:26.714Z,6.51
2016-05-02T00:54:26.685Z,6.48
2016-05-02T00:55:26.500Z,6.47
2016-05-02T00:56:26.613Z,6.53
2016-05-02T00:57:26.599Z,6.53
2016-05-02T00:58:26.571Z,6.44
2016-05-02T00:59:26.542Z,6.36
2016-05-02T01:00:26.373Z,6.46
2016-05-02T01:01:26.501Z,6.41
2016-05-02T01:02:26.466Z,6.47
2016-05-02T01:03:26.481Z,6.44
2016-05-02T01:04:26.513Z,6.35
2016-05-02T01:05:26.200Z,6.29
2016-05-02T01:06:26.559Z,6.32
2016-05-02T01:07:26.553Z,6.21
2016-05-02T01:08:26.541Z,6.35
2016-05-02T01:09:26.372Z,6.3
2016-05-02T01:10:26.516Z,6.3
2016-05-02T01:11:26.504Z,6.18
2016-05-02T01:12:26.490Z,6.22
2016-05-02T01:13:26.467Z,6.26
2016-05-02T01:14:26.303Z,6.18
2016-05-02T01:15:26.437Z,6.13
2016-05-02T01:16:26.399Z,6.14
2016-05-02T01:17:26.390Z,6.21
2016-05-02T01:18:26.364Z,6.1
2016-05-02T01:19:26.321Z,6.11
2016-05-02T01:20:26.310Z,6.1
2016-05-02T01:21:26.283Z,6.11
2016-05-02T01:22:26.257Z,6.07
2016-05-02T01:23:26.229Z,6.07
2016-05-02T01:24:26.201Z,6.11
2016-05-02T01:25:26.174Z,6.09
2016-05-02T01:26:26.004Z,6.01
2016-05-02T01:27:26.118Z,6.01
2016-05-02T01:28:25.949Z,6.01
2016-05-02T01:29:26.077Z,6.01
2016-05-02T01:30:26.049Z,5.95
2016-05-02T01:31:25.865Z,6
2016-05-02T01:32:25.992Z,5.98
2016-05-02T01:33:25.964Z,5.98
2016-05-02T01:34:25.936Z,5.93
2016-05-02T01:35:25.766Z,6.03
2016-05-02T01:36:25.862Z,5.95
2016-05-02T01:37:25.850Z,5.92
2016-05-02T01:38:25.837Z,6
2016-05-02T01:39:25.792Z,5.88
2016-05-02T01:40:25.764Z,5.95
2016-05-02T01:41:25.750Z,5.91
2016-05-02T01:42:25.722Z,5.89
2016-05-02T01:43:25.538Z,5.85
2016-05-02T01:44:25.666Z,5.88
2016-05-02T01:45:25.636Z,5.85
2016-05-02T01:46:25.608Z,5.75
2016-05-02T01:47:25.596Z,5.83
2016-05-02T01:48:25.551Z,5.81
2016-05-02T01:49:25.366Z,5.71
2016-05-02T01:50:25.494Z,5.75
2016-05-02T01:51:25.544Z,5.75
2016-05-02T01:52:25.437Z,5.81
2016-05-02T01:53:25.424Z,5.82
2016-05-02T01:54:25.395Z,5.75
2016-05-02T01:55:25.367Z,5.7
2016-05-02T01:56:25.338Z,5.83
2016-05-02T01:57:25.310Z,5.67
2016-05-02T01:58:25.296Z,5.68
2016-05-02T01:59:25.253Z,5.81
2016-05-02T02:00:25.068Z,5.73
2016-05-02T02:01:25.195Z,5.81
2016-05-02T02:02:25.167Z,5.67
2016-05-02T02:03:25.154Z,5.74
2016-05-02T02:04:25.109Z,5.67
2016-05-02T02:05:25.081Z,5.67
2016-05-02T02:06:25.037Z,5.67
2016-05-02T02:07:25.039Z,5.6
2016-05-02T02:08:25.011Z,5.67
2016-05-02T02:09:24.967Z,5.63
2016-05-02T02:10:24.969Z,5.55
2016-05-02T02:11:24.910Z,5.59
2016-05-02T02:12:24.741Z,5.64
2016-05-02T02:13:24.853Z,5.64
2016-05-02T02:14:24.839Z,5.6
2016-05-02T02:15:24.811Z,5.64
2016-05-02T02:16:24.782Z,5.52
2016-05-02T02:17:24.597Z,5.67
2016-05-02T02:18:24.725Z,5.59
2016-05-02T02:19:24.713Z,5.53
2016-05-02T02:20:24.684Z,5.63
2016-05-02T02:21:24.499Z,5.55
2016-05-02T02:22:24.658Z,5.55
2016-05-02T02:23:24.598Z,5.5
2016-05-02T02:24:24.571Z,5.49
2016-05-02T02:25:24.531Z,5.52
2016-05-02T02:26:24.501Z,5.43
2016-05-02T02:27:24.541Z,5.52
2016-05-02T02:28:24.435Z,5.52
2016-05-02T02:29:24.437Z,5.55
2016-05-02T02:30:24.409Z,5.46
2016-05-02T02:31:24.365Z,5.55
2016-05-02T02:32:24.337Z,5.5
2016-05-02T02:33:24.307Z,5.52
2016-05-02T02:34:24.123Z,5.49
2016-05-02T02:35:24.266Z,5.37
2016-05-02T02:36:24.078Z,5.5
2016-05-02T02:37:23.894Z,5.5
2016-05-02T02:38:24.178Z,5.55
2016-05-02T02:39:24.133Z,5.49
2016-05-02T02:40:24.105Z,5.41
2016-05-02T02:41:24.092Z,5.53
2016-05-02T02:42:24.048Z,5.45
2016-05-02T02:43:24.019Z,5.43
2016-05-02T02:44:24.006Z,5.48
2016-05-02T02:45:23.977Z,5.37
2016-05-02T02:46:23.933Z,5.48
2016-05-02T02:47:23.921Z,5.45
2016-05-02T02:48:23.892Z,5.32
2016-05-02T02:49:23.863Z,5.3
2016-05-02T02:50:23.835Z,5.37
2016-05-02T02:51:24.603Z,5.32
2016-05-02T02:52:23.778Z,5.32
2016-05-02T02:53:23.765Z,5.38
2016-05-02T02:54:23.721Z,5.3
2016-05-02T02:55:23.693Z,5.32
2016-05-02T02:56:23.663Z,5.35
2016-05-02T02:57:23.635Z,5.32
2016-05-02T02:58:23.621Z,5.32
2016-05-02T02:59:23.578Z,5.4
2016-05-02T03:00:23.566Z,5.37
2016-05-02T03:01:23.521Z,5.28
2016-05-02T03:02:23.492Z,5.35
2016-05-02T03:03:23.464Z,5.3
2016-05-02T03:04:23.154Z,5.34
2016-05-02T03:05:23.282Z,5.35
2016-05-02T03:06:23.394Z,5.31
2016-05-02T03:07:23.350Z,5.31
2016-05-02T03:08:23.337Z,5.35
2016-05-02T03:09:23.309Z,5.38
2016-05-02T03:10:23.123Z,5.27
2016-05-02T03:11:23.095Z,5.25
2016-05-02T03:12:23.223Z,5.23
2016-05-02T03:13:23.195Z,5.27
2016-05-02T03:14:23.165Z,5.27
2016-05-02T03:15:23.136Z,5.27
2016-05-02T03:16:23.108Z,5.25
2016-05-02T03:17:23.095Z,5.23
2016-05-02T03:18:23.051Z,5.17
2016-05-02T03:19:23.022Z,5.27
2016-05-02T03:20:22.853Z,5.25
2016-05-02T03:21:22.918Z,5.25
2016-05-02T03:22:22.953Z,5.25
2016-05-02T03:23:22.768Z,5.25
2016-05-02T03:24:22.880Z,5.25
2016-05-02T03:25:22.851Z,5.27
2016-05-02T03:26:22.838Z,5.22
2016-05-02T03:27:22.810Z,5.19
2016-05-02T03:28:22.452Z,5.13
2016-05-02T03:29:22.612Z,5.2
2016-05-02T03:30:22.568Z,5.13
2016-05-02T03:31:22.524Z,5.2
2016-05-02T03:32:22.651Z,5.12
2016-05-02T03:33:22.623Z,5.2
2016-05-02T03:34:22.593Z,5.2
2016-05-02T03:35:22.565Z,5.19
2016-05-02T03:36:22.521Z,5.17
2016-05-02T03:37:22.368Z,5.14
2016-05-02T03:38:22.495Z,5.12
2016-05-02T03:39:22.451Z,5.2
2016-05-02T03:40:22.423Z,5.1
2016-05-02T03:41:22.409Z,5.05
2016-05-02T03:42:22.225Z,5.09
2016-05-02T03:43:22.352Z,5.1
2016-05-02T03:44:22.167Z,5.12
2016-05-02T03:45:22.295Z,5.17
2016-05-02T03:46:22.283Z,5.1
2016-05-02T03:47:22.239Z,5.12
2016-05-02T03:48:22.210Z,5.07
2016-05-02T03:49:22.181Z,5.16
2016-05-02T03:50:22.152Z,5.12
2016-05-02T03:51:22.452Z,5.04
2016-05-02T03:52:22.096Z,5.1
2016-05-02T03:53:22.067Z,5.12
2016-05-02T03:54:22.038Z,5.07
2016-05-02T03:55:22.010Z,5.07
2016-05-02T03:56:21.982Z,5.19
2016-05-02T03:57:21.953Z,5.01
2016-05-02T03:58:21.925Z,5.14
2016-05-02T03:59:21.896Z,5.05
2016-05-02T04:00:21.711Z,5.07
2016-05-02T04:01:21.838Z,4.96
2016-05-02T04:02:21.810Z,5.09
2016-05-02T04:03:21.797Z,5.05
2016-05-02T04:04:21.597Z,5.04
2016-05-02T04:05:21.724Z,5.04
2016-05-02T04:06:21.712Z,5.02
2016-05-02T04:07:21.668Z,5.05
2016-05-02T04:08:21.654Z,5.13
2016-05-02T04:09:21.454Z,5.05
2016-05-02T04:10:21.425Z,5.1
2016-05-02T04:11:21.584Z,5.14
2016-05-02T04:12:21.540Z,5.13
2016-05-02T04:13:21.496Z,5.14
2016-05-02T04:14:21.467Z,5.27
2016-05-02T04:15:21.454Z,5.19
2016-05-02T04:16:21.426Z,5.31
2016-05-02T04:17:21.397Z,5.28
2016-05-02T04:18:21.369Z,5.32
2016-05-02T04:19:21.169Z,5.3
2016-05-02T04:20:21.311Z,5.35
2016-05-02T04:21:21.283Z,5.32
2016-05-02T04:22:21.255Z,5.32
2016-05-02T04:23:21.069Z,5.32
2016-05-02T04:24:21.197Z,5.37
2016-05-02T04:25:21.169Z,5.41
2016-05-02T04:26:21.140Z,5.43
2016-05-02T04:27:21.111Z,5.5
2016-05-02T04:28:21.083Z,5.43
2016-05-02T04:29:21.054Z,5.52
2016-05-02T04:30:20.869Z,5.53
2016-05-02T04:31:20.841Z,5.5
2016-05-02T04:32:20.968Z,5.55
2016-05-02T04:33:20.940Z,5.57
2016-05-02T04:34:20.912Z,5.59
2016-05-02T04:35:20.868Z,5.7
2016-05-02T04:36:20.854Z,5.74
2016-05-02T04:37:20.685Z,5.82
2016-05-02T04:38:20.798Z,5.89
2016-05-02T04:39:20.769Z,5.95
2016-05-02T04:40:20.756Z,6.01
2016-05-02T04:41:20.711Z,6
2016-05-02T04:42:20.698Z,5.98
2016-05-02T04:43:20.655Z,6.1
2016-05-02T04:44:20.626Z,6.06
2016-05-02T04:45:20.442Z,6.16
2016-05-02T04:46:20.569Z,6.22
2016-05-02T04:47:20.556Z,6.3
2016-05-02T04:48:20.512Z,6.29
2016-05-02T04:49:20.483Z,6.25
2016-05-02T04:50:20.470Z,6.35
2016-05-02T04:51:21.442Z,6.35
2016-05-02T04:52:20.413Z,6.41
2016-05-02T04:53:20.385Z,6.5
2016-05-02T04:54:20.356Z,6.56
2016-05-02T04:55:20.327Z,6.62
2016-05-02T04:56:20.314Z,6.61
2016-05-02T04:57:20.271Z,6.59
2016-05-02T04:58:20.242Z,6.5
2016-05-02T04:59:20.072Z,6.48
2016-05-02T05:00:20.200Z,6.62
2016-05-02T05:01:20.172Z,6.58
2016-05-02T05:02:20.143Z,6.62
2016-05-02T05:03:20.115Z,6.59
2016-05-02T05:04:20.086Z,6.59
2016-05-02T05:05:20.057Z,6.63
2016-05-02T05:06:20.091Z,6.66
2016-05-02T05:07:20.001Z,6.65
2016-05-02T05:08:19.972Z,6.71
2016-05-02T05:09:19.944Z,6.77
2016-05-02T05:10:19.931Z,6.76
2016-05-02T05:11:19.887Z,6.72
2016-05-02T05:12:19.873Z,6.69
2016-05-02T05:13:19.829Z,6.77
2016-05-02T05:14:19.817Z,6.71
2016-05-02T05:15:19.788Z,6.77
2016-05-02T05:16:19.759Z,6.86
2016-05-02T05:17:19.731Z,6.95
2016-05-02T05:18:19.703Z,6.9
2016-05-02T05:19:19.673Z,7.01
2016-05-02T05:20:19.661Z,6.99
2016-05-02T05:21:19.616Z,6.98
2016-05-02T05:22:19.603Z,7.07
2016-05-02T05:23:19.575Z,6.98
2016-05-02T05:24:19.531Z,7.16
2016-05-02T05:25:19.517Z,7.13
2016-05-02T05:26:19.333Z,7.27
2016-05-02T05:27:19.461Z,7.2
2016-05-02T05:28:19.447Z,7.2
2016-05-02T05:29:19.419Z,7.32
2016-05-02T05:30:19.375Z,7.37
2016-05-02T05:31:19.363Z,7.32
2016-05-02T05:32:19.318Z,7.45
2016-05-02T05:33:19.289Z,7.5
2016-05-02T05:34:19.276Z,7.58
2016-05-02T05:35:19.248Z,7.59
2016-05-02T05:36:19.407Z,7.59
2016-05-02T05:37:19.190Z,7.66
2016-05-02T05:38:19.162Z,7.69
2016-05-02T05:39:18.977Z,7.75
2016-05-02T05:40:19.120Z,7.82
2016-05-02T05:41:19.093Z,7.93
2016-05-02T05:42:18.923Z,7.92
2016-05-02T05:43:19.050Z,8.07
2016-05-02T05:44:19.006Z,7.97
2016-05-02T05:45:18.837Z,8.15
2016-05-02T05:46:18.981Z,8.14
2016-05-02T05:47:18.936Z,8.14
2016-05-02T05:48:18.892Z,8.22
2016-05-02T05:49:18.879Z,8.26
2016-05-02T05:50:18.851Z,8.29
2016-05-02T05:51:18.541Z,8.37
2016-05-02T05:52:18.794Z,8.37
2016-05-02T05:53:18.780Z,8.45
2016-05-02T05:54:18.752Z,8.55
2016-05-02T05:55:18.723Z,8.58
2016-05-02T05:56:18.711Z,8.62
2016-05-02T05:57:18.667Z,8.65
2016-05-02T05:58:18.638Z,8.72
2016-05-02T05:59:18.624Z,8.73
2016-05-02T06:00:18.596Z,8.81
2016-05-02T06:01:18.411Z,8.97
2016-05-02T06:02:18.539Z,8.87
2016-05-02T06:03:18.526Z,8.96
2016-05-02T06:04:18.341Z,9.05
2016-05-02T06:05:18.469Z,9.12
2016-05-02T06:06:19.690Z,9.18
2016-05-02T06:07:18.427Z,9.23
2016-05-02T06:08:21.665Z,9.25
2016-05-02T06:09:21.058Z,9.34
2016-05-02T06:10:21.921Z,9.46
2016-05-02T06:11:21.485Z,9.5
2016-05-02T06:12:22.393Z,9.52
2016-05-02T06:13:20.756Z,9.5
2016-05-02T06:14:19.493Z,9.66
2016-05-02T06:15:22.448Z,9.71
2016-05-02T06:16:22.233Z,9.63
2016-05-02T06:17:19.579Z,9.76
2016-05-02T06:18:21.254Z,9.75
2016-05-02T06:19:21.944Z,9.81
2016-05-02T06:20:21.728Z,9.93
2016-05-02T06:21:22.230Z,9.99
2016-05-02T06:22:20.597Z,9.94
2016-05-02T06:23:17.944Z,10.07
2016-05-02T06:24:18.008Z,10.09
2016-05-02T06:25:17.966Z,10.15
2016-05-02T06:26:17.952Z,10.21
2016-05-02T06:27:17.939Z,10.28
2016-05-02T06:28:17.894Z,10.3
2016-05-02T06:29:19.476Z,10.32
2016-05-02T06:30:17.854Z,10.39
2016-05-02T06:31:21.435Z,10.44
2016-05-02T06:32:17.640Z,10.47
2016-05-02T06:33:17.783Z,10.46
2016-05-02T06:34:17.599Z,10.56
2016-05-02T06:35:17.742Z,10.6
2016-05-02T06:36:17.714Z,10.6
2016-05-02T06:37:17.685Z,10.65
2016-05-02T06:38:17.360Z,10.65
2016-05-02T06:39:17.628Z,10.78
2016-05-02T06:40:17.615Z,10.77
2016-05-02T06:41:17.587Z,10.94
2016-05-02T06:42:19.402Z,10.94
2016-05-02T06:43:21.560Z,11.07
2016-05-02T06:44:21.438Z,11.02
2016-05-02T06:45:21.534Z,11.07
2016-05-02T06:46:21.615Z,11.11
2016-05-02T06:47:21.617Z,11.28
2016-05-02T06:48:21.184Z,11.34
2016-05-02T06:49:21.233Z,11.28
2016-05-02T06:50:21.111Z,11.43
2016-05-02T06:51:20.176Z,11.47
2016-05-02T06:52:17.178Z,11.43
2016-05-02T06:53:17.133Z,11.61
2016-05-02T06:54:17.277Z,11.57
2016-05-02T06:55:17.108Z,11.75
2016-05-02T06:56:17.220Z,11.89
2016-05-02T06:57:17.051Z,11.89
2016-05-02T06:58:17.038Z,11.99
2016-05-02T06:59:17.166Z,12.11
2016-05-02T07:00:17.138Z,12.29
2016-05-02T07:01:16.968Z,12.31
2016-05-02T07:02:17.096Z,12.57
2016-05-02T07:03:17.083Z,12.67
2016-05-02T07:04:16.899Z,12.89
2016-05-02T07:05:17.041Z,13.18
2016-05-02T07:06:17.091Z,13.67
2016-05-02T07:07:16.985Z,14.25
2016-05-02T07:08:16.956Z,15.02
2016-05-02T07:09:16.943Z,15.81
2016-05-02T07:10:16.915Z,16.67
2016-05-02T07:11:16.901Z,17.29
2016-05-02T07:12:16.576Z,17.95
2016-05-02T07:13:16.860Z,18.55
2016-05-02T07:14:16.878Z,18.98
2016-05-02T07:15:16.662Z,19.54
2016-05-02T07:16:16.820Z,20.12
2016-05-02T07:17:16.793Z,20.68
2016-05-02T07:18:16.764Z,21.01
2016-05-02T07:19:16.751Z,21.48
2016-05-02T07:20:16.738Z,21.88
2016-05-02T07:21:17.225Z,22.41
2016-05-02T07:22:16.712Z,22.83
2016-05-02T07:23:16.683Z,23.05
2016-05-02T07:24:16.671Z,23.38
2016-05-02T07:25:16.658Z,23.77
2016-05-02T07:26:16.645Z,23.83
2016-05-02T07:27:16.664Z,24.17
2016-05-02T07:28:16.619Z,24.32
2016-05-02T07:29:16.606Z,24.75
2016-05-02T07:30:16.608Z,24.94
2016-05-02T07:31:16.580Z,25.15
2016-05-02T07:32:16.566Z,25.43
2016-05-02T07:33:16.569Z,25.59
2016-05-02T07:34:16.557Z,25.77
2016-05-02T07:35:16.232Z,26.21
2016-05-02T07:36:16.406Z,26.28
2016-05-02T07:37:16.534Z,26.46
2016-05-02T07:38:16.504Z,26.72
2016-05-02T07:39:16.352Z,26.92
2016-05-02T07:40:16.510Z,27.17
2016-05-02T07:41:16.482Z,27.33
2016-05-02T07:42:16.469Z,27.33
2016-05-02T07:43:16.301Z,27.53
2016-05-02T07:44:16.443Z,27.7
2016-05-02T07:45:16.446Z,27.82
2016-05-02T07:46:16.418Z,27.84
2016-05-02T07:47:16.264Z,28.11
2016-05-02T07:48:16.407Z,28.1
2016-05-02T07:49:16.409Z,28.36
2016-05-02T07:50:16.240Z,28.68
2016-05-02T07:51:16.368Z,28.78
2016-05-02T07:52:16.403Z,28.69
2016-05-02T07:53:16.389Z,28.46
2016-05-02T07:54:16.361Z,28.48
2016-05-02T07:55:16.363Z,28.7
2016-05-02T07:56:16.350Z,29.06
2016-05-02T07:57:16.338Z,29.33
2016-05-02T07:58:16.341Z,29.5
2016-05-02T07:59:16.327Z,29.7
2016-05-02T08:00:16.314Z,29.87
2016-05-02T08:01:16.317Z,30.11
2016-05-02T08:02:16.304Z,29.99
2016-05-02T08:03:16.291Z,29.87
2016-05-02T08:04:16.310Z,29.94
2016-05-02T08:05:16.280Z,30.05
2016-05-02T08:06:16.283Z,30.11
2016-05-02T08:07:16.271Z,30.21
2016-05-02T08:08:16.274Z,30.4
2016-05-02T08:09:16.261Z,30.4
2016-05-02T08:10:16.247Z,30.47
2016-05-02T08:11:16.251Z,30.5
2016-05-02T08:12:16.237Z,30.61
2016-05-02T08:13:16.240Z,30.75
2016-05-02T08:14:16.071Z,30.8
2016-05-02T08:15:16.230Z,30.86
2016-05-02T08:16:16.217Z,30.71
2016-05-02T08:17:16.219Z,30.69
2016-05-02T08:18:16.206Z,30.83
2016-05-02T08:19:16.209Z,30.84
2016-05-02T08:20:16.196Z,30.9
2016-05-02T08:21:16.090Z,31.01
2016-05-02T08:22:16.186Z,30.84
2016-05-02T08:23:16.188Z,30.94
2016-05-02T08:24:16.020Z,31.06
2016-05-02T08:25:16.178Z,30.98
2016-05-02T08:26:16.181Z,31.08
2016-05-02T08:27:15.997Z,31.05
2016-05-02T08:28:16.155Z,31.11
2016-05-02T08:29:16.158Z,30.94
2016-05-02T08:30:16.161Z,30.83
2016-05-02T08:31:16.147Z,30.57
2016-05-02T08:32:16.150Z,30.57
2016-05-02T08:33:15.981Z,30.53
2016-05-02T08:34:16.124Z,30.65
2016-05-02T08:35:16.127Z,30.72
2016-05-02T08:36:15.974Z,30.78
2016-05-02T08:37:15.960Z,30.9
2016-05-02T08:38:16.105Z,30.72
2016-05-02T08:39:15.951Z,30.81
2016-05-02T08:40:15.953Z,30.83
2016-05-02T08:41:16.096Z,30.89
2016-05-02T08:42:16.099Z,31.08
2016-05-02T08:43:15.946Z,31.08
2016-05-02T08:44:16.089Z,30.96
2016-05-02T08:45:16.076Z,31.04
2016-05-02T08:46:16.079Z,30.84
2016-05-02T08:47:15.910Z,30.23
2016-05-02T08:48:16.053Z,29.28
2016-05-02T08:49:15.899Z,28.7
2016-05-02T08:50:15.886Z,28.21
2016-05-02T08:51:15.889Z,27.79
2016-05-02T08:52:16.032Z,27.29
2016-05-02T08:53:16.020Z,26.8
2016-05-02T08:54:16.006Z,26.44
2016-05-02T08:55:16.008Z,25.91
2016-05-02T08:56:15.997Z,25.53
2016-05-02T08:57:15.984Z,25.12
2016-05-02T08:58:15.970Z,24.82
2016-05-02T08:59:15.973Z,24.45
2016-05-02T09:00:15.945Z,23.82
2016-05-02T09:01:15.947Z,23.31
2016-05-02T09:02:15.934Z,23.05
2016-05-02T09:03:15.766Z,22.56
2016-05-02T09:04:15.768Z,22.38
2016-05-02T09:05:15.739Z,22.25
2016-05-02T09:06:15.852Z,21.76
2016-05-02T09:07:15.729Z,21.42
2016-05-02T09:08:15.857Z,21.46
2016-05-02T09:09:15.844Z,20.95
2016-05-02T09:10:15.830Z,20.99
2016-05-02T09:11:15.818Z,20.87
2016-05-02T09:12:15.804Z,20.76
2016-05-02T09:13:15.792Z,20.61
2016-05-02T09:14:15.779Z,20.56
2016-05-02T09:15:15.609Z,20.39
2016-05-02T09:16:15.753Z,20.27
2016-05-02T09:17:15.724Z,20.24
2016-05-02T09:18:15.727Z,20.18
2016-05-02T09:19:15.542Z,20
2016-05-02T09:20:15.686Z,19.94
2016-05-02T09:21:15.673Z,19.76
2016-05-02T09:22:15.504Z,19.63
2016-05-02T09:23:15.647Z,19.28
2016-05-02T09:24:15.634Z,19.18
2016-05-02T09:25:15.605Z,19.31
2016-05-02T09:26:15.593Z,19.25
2016-05-02T09:27:15.580Z,19.28
2016-05-02T09:28:15.567Z,19.06
2016-05-02T09:29:15.539Z,19.02
2016-05-02T09:30:15.541Z,19.06
2016-05-02T09:31:15.355Z,18.97
2016-05-02T09:32:15.499Z,18.99
2016-05-02T09:33:15.487Z,18.95
2016-05-02T09:34:15.474Z,19.01
2016-05-02T09:35:15.444Z,19.01
2016-05-02T09:36:16.433Z,19.05
2016-05-02T09:37:15.419Z,18.98
2016-05-02T09:38:15.390Z,18.97
2016-05-02T09:39:15.394Z,18.92
2016-05-02T09:40:15.365Z,18.98
2016-05-02T09:41:15.367Z,18.91
2016-05-02T09:42:15.339Z,18.95
2016-05-02T09:43:15.326Z,19.01
2016-05-02T09:44:15.296Z,19.01
2016-05-02T09:45:15.285Z,18.91
2016-05-02T09:46:15.099Z,19.02
2016-05-02T09:47:15.259Z,19.06
2016-05-02T09:48:15.230Z,18.95
2016-05-02T09:49:15.232Z,19.06
2016-05-02T09:50:15.204Z,18.99
2016-05-02T09:51:15.034Z,19.08
2016-05-02T09:52:15.007Z,19.17
2016-05-02T09:53:15.150Z,19.11
2016-05-02T09:54:14.996Z,19.05
2016-05-02T09:55:15.108Z,19.01
2016-05-02T09:56:15.095Z,19.1
2016-05-02T09:57:15.081Z,19.11
2016-05-02T09:58:15.069Z,19.06
2016-05-02T09:59:15.041Z,19.14
2016-05-02T10:00:14.871Z,19.14
2016-05-02T10:01:15.014Z,19.05
2016-05-02T10:02:15.002Z,19.01
2016-05-02T10:03:14.833Z,19.05
2016-05-02T10:04:14.976Z,19.18
2016-05-02T10:05:14.947Z,19.17
2016-05-02T10:06:14.778Z,19.18
2016-05-02T10:07:14.905Z,19.06
2016-05-02T10:08:14.893Z,19.11
2016-05-02T10:09:14.881Z,19.17
2016-05-02T10:10:14.926Z,19.25
2016-05-02T10:11:14.941Z,19.13
2016-05-02T10:12:14.815Z,19.28
2016-05-02T10:13:15.002Z,19.29
2016-05-02T10:14:15.021Z,19.24
2016-05-02T10:15:15.008Z,19.24
2016-05-02T10:16:15.105Z,19.36
2016-05-02T10:17:15.014Z,19.32
2016-05-02T10:18:15.032Z,19.39
2016-05-02T10:19:15.000Z,19.35
2016-05-02T10:20:14.992Z,19.33
2016-05-02T10:21:15.001Z,19.31
2016-05-02T10:22:14.978Z,19.29
2016-05-02T10:23:14.956Z,19.36
2016-05-02T10:24:14.946Z,19.39
2016-05-02T10:25:14.951Z,19.32
2016-05-02T10:26:14.909Z,19.38
2016-05-02T10:27:14.914Z,19.4
2016-05-02T10:28:14.903Z,19.46
2016-05-02T10:29:14.876Z,19.39
2016-05-02T10:30:14.864Z,19.38
2016-05-02T10:31:14.836Z,19.4
2016-05-02T10:32:14.824Z,19.38
2016-05-02T10:33:14.827Z,19.38
2016-05-02T10:34:14.814Z,19.47
2016-05-02T10:35:14.770Z,19.48
2016-05-02T10:36:14.757Z,19.4
2016-05-02T10:37:14.589Z,19.55
2016-05-02T10:38:14.732Z,19.53
2016-05-02T10:39:14.547Z,19.55
2016-05-02T10:40:14.674Z,19.51
2016-05-02T10:41:14.521Z,19.6
2016-05-02T10:42:14.664Z,19.53
2016-05-02T10:43:14.636Z,19.57
2016-05-02T10:44:14.623Z,19.55
2016-05-02T10:45:14.454Z,19.55
2016-05-02T10:46:14.581Z,19.57
2016-05-02T10:47:14.412Z,19.48
2016-05-02T10:48:14.398Z,19.57
2016-05-02T10:49:14.527Z,19.55
2016-05-02T10:50:14.529Z,19.6
2016-05-02T10:51:14.704Z,19.66
2016-05-02T10:52:14.487Z,19.68
2016-05-02T10:53:14.475Z,19.7
2016-05-02T10:54:14.462Z,19.75
2016-05-02T10:55:14.292Z,19.68
2016-05-02T10:56:14.420Z,19.61
2016-05-02T10:57:14.408Z,19.68
2016-05-02T10:58:14.379Z,19.72
2016-05-02T10:59:14.226Z,19.84
2016-05-02T11:00:14.369Z,19.76
2016-05-02T11:01:14.356Z,19.76
2016-05-02T11:02:14.311Z,19.83
2016-05-02T11:03:14.299Z,19.84
2016-05-02T11:04:14.145Z,19.84
2016-05-02T11:05:14.258Z,19.86
2016-05-02T11:06:14.104Z,19.83
2016-05-02T11:07:14.231Z,19.57
2016-05-02T11:08:14.219Z,19.68
2016-05-02T11:09:14.049Z,19.75
2016-05-02T11:10:14.193Z,19.78
2016-05-02T11:11:14.163Z,19.88
2016-05-02T11:12:14.151Z,19.9
2016-05-02T11:13:13.983Z,19.94
2016-05-02T11:14:14.125Z,19.94
2016-05-02T11:15:14.097Z,19.9
2016-05-02T11:16:13.927Z,19.91
2016-05-02T11:17:14.071Z,19.8
2016-05-02T11:18:14.043Z,19.79
2016-05-02T11:19:14.029Z,19.83
2016-05-02T11:20:13.860Z,19.93
2016-05-02T11:21:13.785Z,19.94
2016-05-02T11:22:13.990Z,19.83
2016-05-02T11:23:13.954Z,19.83
2016-05-02T11:24:13.941Z,19.69
2016-05-02T11:25:13.929Z,19.55
2016-05-02T11:26:13.915Z,19.58
2016-05-02T11:27:13.903Z,19.55
2016-05-02T11:28:13.873Z,19.75
2016-05-02T11:29:13.861Z,19.78
2016-05-02T11:30:13.832Z,19.66
2016-05-02T11:31:13.678Z,19.65
2016-05-02T11:32:13.807Z,19.7
2016-05-02T11:33:13.794Z,19.72
2016-05-02T11:34:13.781Z,19.78
2016-05-02T11:35:13.767Z,19.88
2016-05-02T11:36:13.770Z,19.9
2016-05-02T11:37:13.726Z,19.94
2016-05-02T11:38:13.714Z,19.91
2016-05-02T11:39:13.685Z,19.9
2016-05-02T11:40:13.516Z,19.91
2016-05-02T11:41:13.659Z,19.91
2016-05-02T11:42:13.646Z,19.95
2016-05-02T11:43:13.632Z,19.97
2016-05-02T11:44:13.605Z,20.02
2016-05-02T11:45:13.607Z,20.05
2016-05-02T11:46:13.438Z,20.03
2016-05-02T11:47:13.566Z,20.06
2016-05-02T11:48:13.552Z,19.94
2016-05-02T11:49:13.540Z,20
2016-05-02T11:50:13.511Z,20.02
2016-05-02T11:51:13.498Z,20
2016-05-02T11:52:13.485Z,20.09
2016-05-02T11:53:13.473Z,19.95
2016-05-02T11:54:13.443Z,19.93
2016-05-02T11:55:13.446Z,19.91
2016-05-02T11:56:13.402Z,19.91
2016-05-02T11:57:13.264Z,19.95
2016-05-02T11:58:13.376Z,19.91
2016-05-02T11:59:13.364Z,19.9
2016-05-02T12:00:13.351Z,19.91
2016-05-02T12:01:13.322Z,19.94
2016-05-02T12:02:13.309Z,19.97
2016-05-02T12:03:13.312Z,20.06
2016-05-02T12:04:13.143Z,19.98
2016-05-02T12:05:13.255Z,20.02
2016-05-02T12:06:13.242Z,20.13
2016-05-02T12:07:13.229Z,20.13
2016-05-02T12:08:13.201Z,20.13
2016-05-02T12:09:13.187Z,20.09
2016-05-02T12:10:13.175Z,20.13
2016-05-02T12:11:13.161Z,20.09
2016-05-02T12:12:13.149Z,20.08
2016-05-02T12:13:13.136Z,20
2016-05-02T12:14:13.123Z,20.02
2016-05-02T12:15:13.094Z,20
2016-05-02T12:16:13.080Z,19.97
2016-05-02T12:17:12.912Z,20.1
2016-05-02T12:18:13.040Z,20.15
2016-05-02T12:19:13.027Z,20.21
2016-05-02T12:20:12.999Z,20.13
2016-05-02T12:21:13.298Z,20.12
2016-05-02T12:22:12.972Z,20.09
2016-05-02T12:23:12.959Z,20.18
2016-05-02T12:24:12.946Z,20.15
2016-05-02T12:25:12.917Z,20.15
2016-05-02T12:26:12.952Z,20.15
2016-05-02T12:27:12.892Z,20.2
2016-05-02T12:28:12.879Z,20.12
2016-05-02T12:29:12.865Z,20.16
2016-05-02T12:30:12.853Z,20.13
2016-05-02T12:31:12.825Z,20.23
2016-05-02T12:32:12.655Z,20.25
2016-05-02T12:33:12.627Z,20.25
2016-05-02T12:34:12.770Z,20.24
2016-05-02T12:35:12.756Z,20.28
2016-05-02T12:36:12.604Z,20.23
2016-05-02T12:37:12.731Z,20.2
2016-05-02T12:38:12.719Z,20.25
2016-05-02T12:39:12.690Z,20.34
2016-05-02T12:40:12.677Z,20.31
2016-05-02T12:41:12.664Z,20.31
2016-05-02T12:42:12.635Z,20.28
2016-05-02T12:43:12.622Z,20.31
2016-05-02T12:44:12.610Z,20.31
2016-05-02T12:45:12.597Z,20.3
2016-05-02T12:46:12.583Z,20.35
2016-05-02T12:47:12.602Z,20.35
2016-05-02T12:48:12.526Z,20.35
2016-05-02T12:49:12.374Z,20.42
2016-05-02T12:50:12.344Z,20.43
2016-05-02T12:51:12.347Z,20.43
2016-05-02T12:52:12.475Z,20.41
2016-05-02T12:53:12.321Z,20.34
2016-05-02T12:54:12.918Z,20.34
2016-05-02T12:55:12.420Z,20.43
2016-05-02T12:56:12.407Z,20.43
2016-05-02T12:57:12.598Z,20.42
2016-05-02T12:58:12.366Z,20.47
2016-05-02T12:59:12.354Z,20.41
2016-05-02T13:00:12.184Z,20.43
2016-05-02T13:01:12.171Z,20.35
2016-05-02T13:02:12.330Z,20.39
2016-05-02T13:03:12.129Z,20.34
2016-05-02T13:04:12.289Z,20.3
2016-05-02T13:05:12.245Z,20.43
2016-05-02T13:06:12.701Z,20.33
2016-05-02T13:07:12.234Z,20.34
2016-05-02T13:08:12.206Z,20.25